sensor_id;sensor_type;location;lat;lon;timestamp;P1;durP1;ratioP1;P2;durP2;ratioP2
22774;SDS011;11554;51.106;3.684;2023-07-13T00:00:00;10.50;;;2.20;;
22774;SDS011;11554;51.106;3.684;2023-07-13T00:05:00;9.90;;;2.30;;
22774;SDS011;11554;51.106;3.684;2023-07-13T00:10:01;9.90;;;2.30;;
22774;SDS011;11554;51.106;3.684;2023-07-13T00:15:03;10.80;;;2.40;;
22774;SDS011;11554;51.106;3.684;2023-07-13T00:20:00;10.80;;;2.40;;
22774;SDS011;11554;51.106;3.684;2023-07-13T00:25:00;10.40;;;2.40;;
22774;SDS011;11554;51.106;3.684;2023-07-13T00:30:00;10.40;;;2.40;;
22774;SDS011;11554;51.106;3.684;2023-07-13T00:35:00;8.70;;;2.40;;
22774;SDS011;11554;51.106;3.684;2023-07-13T00:40:00;8.70;;;2.40;;
22774;SDS011;11554;51.106;3.684;2023-07-13T00:45:02;12.00;;;2.60;;
22774;SDS011;11554;51.106;3.684;2023-07-13T00:50:02;12.00;;;2.60;;
22774;SDS011;11554;51.106;3.684;2023-07-13T00:55:01;11.00;;;2.70;;
22774;SDS011;11554;51.106;3.684;2023-07-13T01:00:04;11.00;;;2.70;;
22774;SDS011;11554;51.106;3.684;2023-07-13T01:05:00;10.20;;;3.00;;
22774;SDS011;11554;51.106;3.684;2023-07-13T01:10:00;10.20;;;3.00;;
22774;SDS011;11554;51.106;3.684;2023-07-13T01:15:01;11.10;;;2.50;;
22774;SDS011;11554;51.106;3.684;2023-07-13T01:20:00;11.10;;;2.50;;
22774;SDS011;11554;51.106;3.684;2023-07-13T01:25:02;10.20;;;3.10;;
22774;SDS011;11554;51.106;3.684;2023-07-13T01:30:00;10.20;;;3.10;;
22774;SDS011;11554;51.106;3.684;2023-07-13T01:35:00;13.70;;;3.00;;
22774;SDS011;11554;51.106;3.684;2023-07-13T01:40:00;13.70;;;3.00;;
22774;SDS011;11554;51.106;3.684;2023-07-13T01:45:00;12.20;;;3.20;;
22774;SDS011;11554;51.106;3.684;2023-07-13T01:50:00;12.20;;;3.20;;
22774;SDS011;11554;51.106;3.684;2023-07-13T01:55:00;13.20;;;3.30;;
22774;SDS011;11554;51.106;3.684;2023-07-13T02:00:03;13.20;;;3.30;;
22774;SDS011;11554;51.106;3.684;2023-07-13T02:05:00;14.60;;;3.40;;
22774;SDS011;11554;51.106;3.684;2023-07-13T02:10:00;14.60;;;3.40;;
22774;SDS011;11554;51.106;3.684;2023-07-13T02:15:01;15.30;;;3.20;;
22774;SDS011;11554;51.106;3.684;2023-07-13T02:20:00;15.30;;;3.20;;
22774;SDS011;11554;51.106;3.684;2023-07-13T02:25:01;13.40;;;3.30;;
22774;SDS011;11554;51.106;3.684;2023-07-13T02:30:00;13.40;;;3.30;;
22774;SDS011;11554;51.106;3.684;2023-07-13T02:35:00;14.60;;;3.30;;
22774;SDS011;11554;51.106;3.684;2023-07-13T02:40:00;14.60;;;3.30;;
22774;SDS011;11554;51.106;3.684;2023-07-13T02:45:00;15.80;;;3.70;;
22774;SDS011;11554;51.106;3.684;2023-07-13T02:50:00;15.80;;;3.70;;
22774;SDS011;11554;51.106;3.684;2023-07-13T02:55:00;16.00;;;3.60;;
22774;SDS011;11554;51.106;3.684;2023-07-13T03:00:01;16.00;;;3.60;;
22774;SDS011;11554;51.106;3.684;2023-07-13T03:05:01;16.10;;;3.40;;
22774;SDS011;11554;51.106;3.684;2023-07-13T03:10:00;16.10;;;3.40;;
22774;SDS011;11554;51.106;3.684;2023-07-13T03:15:00;12.70;;;3.60;;
22774;SDS011;11554;51.106;3.684;2023-07-13T03:20:00;12.70;;;3.60;;
22774;SDS011;11554;51.106;3.684;2023-07-13T03:25:00;11.90;;;3.20;;
22774;SDS011;11554;51.106;3.684;2023-07-13T03:30:00;11.90;;;3.20;;
22774;SDS011;11554;51.106;3.684;2023-07-13T03:35:00;15.50;;;3.90;;
22774;SDS011;11554;51.106;3.684;2023-07-13T03:40:00;15.50;;;3.90;;
22774;SDS011;11554;51.106;3.684;2023-07-13T03:45:00;15.10;;;4.50;;
22774;SDS011;11554;51.106;3.684;2023-07-13T03:50:00;15.10;;;4.50;;
22774;SDS011;11554;51.106;3.684;2023-07-13T03:55:00;15.60;;;4.60;;
22774;SDS011;11554;51.106;3.684;2023-07-13T04:00:00;15.60;;;4.60;;
22774;SDS011;11554;51.106;3.684;2023-07-13T04:05:00;18.00;;;4.80;;
22774;SDS011;11554;51.106;3.684;2023-07-13T04:10:00;18.00;;;4.80;;
22774;SDS011;11554;51.106;3.684;2023-07-13T04:15:00;19.50;;;4.70;;
22774;SDS011;11554;51.106;3.684;2023-07-13T04:20:01;19.50;;;4.70;;
22774;SDS011;11554;51.106;3.684;2023-07-13T04:25:00;17.20;;;4.60;;
22774;SDS011;11554;51.106;3.684;2023-07-13T04:30:00;17.20;;;4.60;;
22774;SDS011;11554;51.106;3.684;2023-07-13T04:35:00;17.20;;;4.60;;
22774;SDS011;11554;51.106;3.684;2023-07-13T04:40:00;17.20;;;4.60;;
22774;SDS011;11554;51.106;3.684;2023-07-13T04:45:00;17.60;;;4.10;;
22774;SDS011;11554;51.106;3.684;2023-07-13T04:50:00;17.60;;;4.10;;
22774;SDS011;11554;51.106;3.684;2023-07-13T04:55:00;15.50;;;4.00;;
22774;SDS011;11554;51.106;3.684;2023-07-13T05:00:00;15.50;;;4.00;;
22774;SDS011;11554;51.106;3.684;2023-07-13T05:05:01;16.90;;;4.00;;
22774;SDS011;11554;51.106;3.684;2023-07-13T05:10:00;16.90;;;4.00;;
22774;SDS011;11554;51.106;3.684;2023-07-13T05:15:01;18.40;;;4.10;;
22774;SDS011;11554;51.106;3.684;2023-07-13T05:20:00;18.40;;;4.10;;
22774;SDS011;11554;51.106;3.684;2023-07-13T05:25:00;16.90;;;4.40;;
22774;SDS011;11554;51.106;3.684;2023-07-13T05:30:00;16.90;;;4.40;;
22774;SDS011;11554;51.106;3.684;2023-07-13T05:35:00;20.10;;;4.40;;
22774;SDS011;11554;51.106;3.684;2023-07-13T05:40:00;20.10;;;4.40;;
22774;SDS011;11554;51.106;3.684;2023-07-13T05:45:01;14.90;;;4.20;;
22774;SDS011;11554;51.106;3.684;2023-07-13T05:50:00;14.90;;;4.20;;
22774;SDS011;11554;51.106;3.684;2023-07-13T05:55:00;16.80;;;4.30;;
22774;SDS011;11554;51.106;3.684;2023-07-13T06:00:00;16.80;;;4.30;;
22774;SDS011;11554;51.106;3.684;2023-07-13T06:05:00;21.20;;;4.70;;
22774;SDS011;11554;51.106;3.684;2023-07-13T06:10:00;21.20;;;4.70;;
22774;SDS011;11554;51.106;3.684;2023-07-13T06:15:00;15.60;;;4.80;;
22774;SDS011;11554;51.106;3.684;2023-07-13T06:20:00;15.60;;;4.80;;
22774;SDS011;11554;51.106;3.684;2023-07-13T06:25:00;19.10;;;5.30;;
22774;SDS011;11554;51.106;3.684;2023-07-13T06:30:00;19.10;;;5.30;;
22774;SDS011;11554;51.106;3.684;2023-07-13T06:35:00;17.40;;;4.90;;
22774;SDS011;11554;51.106;3.684;2023-07-13T06:40:00;17.40;;;4.90;;
22774;SDS011;11554;51.106;3.684;2023-07-13T06:45:00;16.20;;;4.50;;
22774;SDS011;11554;51.106;3.684;2023-07-13T06:50:00;16.20;;;4.50;;
22774;SDS011;11554;51.106;3.684;2023-07-13T06:55:00;18.70;;;4.30;;
22774;SDS011;11554;51.106;3.684;2023-07-13T07:00:00;18.70;;;4.30;;
22774;SDS011;11554;51.106;3.684;2023-07-13T07:05:00;12.60;;;4.00;;
22774;SDS011;11554;51.106;3.684;2023-07-13T07:10:00;12.60;;;4.00;;
22774;SDS011;11554;51.106;3.684;2023-07-13T07:15:00;16.50;;;3.90;;
22774;SDS011;11554;51.106;3.684;2023-07-13T07:20:00;16.50;;;3.90;;
22774;SDS011;11554;51.106;3.684;2023-07-13T07:25:00;14.40;;;4.00;;
22774;SDS011;11554;51.106;3.684;2023-07-13T07:30:00;14.40;;;4.00;;
22774;SDS011;11554;51.106;3.684;2023-07-13T07:35:00;15.50;;;3.80;;
22774;SDS011;11554;51.106;3.684;2023-07-13T07:40:00;15.50;;;3.80;;
22774;SDS011;11554;51.106;3.684;2023-07-13T07:45:00;9.20;;;2.80;;
22774;SDS011;11554;51.106;3.684;2023-07-13T07:50:00;9.20;;;2.80;;
22774;SDS011;11554;51.106;3.684;2023-07-13T07:55:00;10.10;;;2.60;;
22774;SDS011;11554;51.106;3.684;2023-07-13T08:00:00;10.10;;;2.60;;
22774;SDS011;11554;51.106;3.684;2023-07-13T08:05:00;10.00;;;2.60;;
22774;SDS011;11554;51.106;3.684;2023-07-13T08:10:01;10.00;;;2.60;;
22774;SDS011;11554;51.106;3.684;2023-07-13T08:15:00;10.00;;;2.60;;
22774;SDS011;11554;51.106;3.684;2023-07-13T08:20:00;10.00;;;2.60;;
22774;SDS011;11554;51.106;3.684;2023-07-13T08:25:01;6.90;;;2.50;;
22774;SDS011;11554;51.106;3.684;2023-07-13T08:30:00;6.90;;;2.50;;
22774;SDS011;11554;51.106;3.684;2023-07-13T08:35:00;8.00;;;1.90;;
22774;SDS011;11554;51.106;3.684;2023-07-13T08:40:00;8.00;;;1.90;;
22774;SDS011;11554;51.106;3.684;2023-07-13T08:45:07;7.00;;;2.00;;
22774;SDS011;11554;51.106;3.684;2023-07-13T08:50:01;7.00;;;2.00;;
22774;SDS011;11554;51.106;3.684;2023-07-13T08:55:09;8.80;;;2.30;;
22774;SDS011;11554;51.106;3.684;2023-07-13T09:00:00;8.80;;;2.30;;
22774;SDS011;11554;51.106;3.684;2023-07-13T09:05:03;7.00;;;2.20;;
22774;SDS011;11554;51.106;3.684;2023-07-13T09:10:13;7.00;;;2.20;;
22774;SDS011;11554;51.106;3.684;2023-07-13T09:15:02;7.90;;;2.40;;
22774;SDS011;11554;51.106;3.684;2023-07-13T09:20:04;7.90;;;2.40;;
22774;SDS011;11554;51.106;3.684;2023-07-13T09:25:05;7.80;;;2.30;;
22774;SDS011;11554;51.106;3.684;2023-07-13T09:30:15;7.80;;;2.30;;
22774;SDS011;11554;51.106;3.684;2023-07-13T09:35:00;7.50;;;2.60;;
22774;SDS011;11554;51.106;3.684;2023-07-13T09:40:02;7.50;;;2.60;;
22774;SDS011;11554;51.106;3.684;2023-07-13T09:45:02;7.60;;;2.20;;
22774;SDS011;11554;51.106;3.684;2023-07-13T09:50:03;7.60;;;2.20;;
22774;SDS011;11554;51.106;3.684;2023-07-13T09:55:00;7.50;;;2.30;;
22774;SDS011;11554;51.106;3.684;2023-07-13T10:00:00;7.50;;;2.30;;
22774;SDS011;11554;51.106;3.684;2023-07-13T10:05:02;8.10;;;2.10;;
22774;SDS011;11554;51.106;3.684;2023-07-13T10:10:01;8.10;;;2.10;;
22774;SDS011;11554;51.106;3.684;2023-07-13T10:15:01;7.70;;;2.00;;
22774;SDS011;11554;51.106;3.684;2023-07-13T10:20:03;7.70;;;2.00;;
22774;SDS011;11554;51.106;3.684;2023-07-13T10:25:00;5.60;;;1.90;;
22774;SDS011;11554;51.106;3.684;2023-07-13T10:30:09;5.60;;;1.90;;
22774;SDS011;11554;51.106;3.684;2023-07-13T10:35:00;6.30;;;2.30;;
22774;SDS011;11554;51.106;3.684;2023-07-13T10:40:01;6.30;;;2.30;;
22774;SDS011;11554;51.106;3.684;2023-07-13T10:45:00;7.70;;;2.50;;
22774;SDS011;11554;51.106;3.684;2023-07-13T10:50:00;7.70;;;2.50;;
22774;SDS011;11554;51.106;3.684;2023-07-13T10:55:02;11.60;;;2.90;;
22774;SDS011;11554;51.106;3.684;2023-07-13T11:00:15;11.60;;;2.90;;
22774;SDS011;11554;51.106;3.684;2023-07-13T11:05:17;6.50;;;2.00;;
22774;SDS011;11554;51.106;3.684;2023-07-13T11:10:05;6.50;;;2.00;;
22774;SDS011;11554;51.106;3.684;2023-07-13T11:15:04;6.00;;;1.90;;
22774;SDS011;11554;51.106;3.684;2023-07-13T11:20:10;6.00;;;1.90;;
22774;SDS011;11554;51.106;3.684;2023-07-13T11:25:02;5.60;;;2.10;;
22774;SDS011;11554;51.106;3.684;2023-07-13T11:30:21;5.60;;;2.10;;
22774;SDS011;11554;51.106;3.684;2023-07-13T11:35:00;4.70;;;1.80;;
22774;SDS011;11554;51.106;3.684;2023-07-13T11:40:00;4.70;;;1.80;;
22774;SDS011;11554;51.106;3.684;2023-07-13T11:45:00;4.90;;;1.90;;
22774;SDS011;11554;51.106;3.684;2023-07-13T11:50:00;4.90;;;1.90;;
22774;SDS011;11554;51.106;3.684;2023-07-13T11:55:03;6.30;;;2.20;;
22774;SDS011;11554;51.106;3.684;2023-07-13T12:00:03;6.30;;;2.20;;
22774;SDS011;11554;51.106;3.684;2023-07-13T12:05:02;8.40;;;2.70;;
22774;SDS011;11554;51.106;3.684;2023-07-13T12:10:01;8.40;;;2.70;;
22774;SDS011;11554;51.106;3.684;2023-07-13T12:15:00;7.00;;;2.10;;
22774;SDS011;11554;51.106;3.684;2023-07-13T12:20:03;7.00;;;2.10;;
22774;SDS011;11554;51.106;3.684;2023-07-13T12:25:00;6.70;;;1.80;;
22774;SDS011;11554;51.106;3.684;2023-07-13T12:30:03;6.70;;;1.80;;
22774;SDS011;11554;51.106;3.684;2023-07-13T12:35:13;5.40;;;1.90;;
22774;SDS011;11554;51.106;3.684;2023-07-13T12:40:01;5.40;;;1.90;;
22774;SDS011;11554;51.106;3.684;2023-07-13T12:45:02;5.50;;;1.70;;
22774;SDS011;11554;51.106;3.684;2023-07-13T12:50:04;5.50;;;1.70;;
22774;SDS011;11554;51.106;3.684;2023-07-13T12:55:05;3.90;;;1.60;;
22774;SDS011;11554;51.106;3.684;2023-07-13T13:00:03;3.90;;;1.60;;
22774;SDS011;11554;51.106;3.684;2023-07-13T13:05:01;6.10;;;2.00;;
22774;SDS011;11554;51.106;3.684;2023-07-13T13:10:00;6.10;;;2.00;;
22774;SDS011;11554;51.106;3.684;2023-07-13T13:15:00;4.80;;;1.50;;
22774;SDS011;11554;51.106;3.684;2023-07-13T13:20:00;4.80;;;1.50;;
22774;SDS011;11554;51.106;3.684;2023-07-13T13:25:00;5.50;;;1.60;;
22774;SDS011;11554;51.106;3.684;2023-07-13T13:30:01;5.50;;;1.60;;
22774;SDS011;11554;51.106;3.684;2023-07-13T13:35:00;4.80;;;1.60;;
22774;SDS011;11554;51.106;3.684;2023-07-13T13:40:00;4.80;;;1.60;;
22774;SDS011;11554;51.106;3.684;2023-07-13T13:45:00;4.60;;;1.60;;
22774;SDS011;11554;51.106;3.684;2023-07-13T13:50:00;4.60;;;1.60;;
22774;SDS011;11554;51.106;3.684;2023-07-13T13:55:00;5.60;;;1.50;;
22774;SDS011;11554;51.106;3.684;2023-07-13T14:00:00;5.60;;;1.50;;
22774;SDS011;11554;51.106;3.684;2023-07-13T14:05:02;5.20;;;1.50;;
22774;SDS011;11554;51.106;3.684;2023-07-13T14:10:00;5.20;;;1.50;;
22774;SDS011;11554;51.106;3.684;2023-07-13T14:15:00;3.40;;;1.30;;
22774;SDS011;11554;51.106;3.684;2023-07-13T14:20:00;3.40;;;1.30;;
22774;SDS011;11554;51.106;3.684;2023-07-13T14:25:00;4.70;;;1.20;;
22774;SDS011;11554;51.106;3.684;2023-07-13T14:30:00;4.70;;;1.20;;
22774;SDS011;11554;51.106;3.684;2023-07-13T14:35:00;4.80;;;1.30;;
22774;SDS011;11554;51.106;3.684;2023-07-13T14:40:00;4.80;;;1.30;;
22774;SDS011;11554;51.106;3.684;2023-07-13T14:45:00;3.40;;;1.10;;
22774;SDS011;11554;51.106;3.684;2023-07-13T14:50:00;3.40;;;1.10;;
22774;SDS011;11554;51.106;3.684;2023-07-13T14:55:00;3.50;;;1.10;;
22774;SDS011;11554;51.106;3.684;2023-07-13T15:00:00;3.50;;;1.10;;
22774;SDS011;11554;51.106;3.684;2023-07-13T15:05:01;4.60;;;1.50;;
22774;SDS011;11554;51.106;3.684;2023-07-13T15:10:00;4.60;;;1.50;;
22774;SDS011;11554;51.106;3.684;2023-07-13T15:15:00;4.70;;;1.10;;
22774;SDS011;11554;51.106;3.684;2023-07-13T15:20:00;4.70;;;1.10;;
22774;SDS011;11554;51.106;3.684;2023-07-13T15:25:00;4.20;;;1.30;;
22774;SDS011;11554;51.106;3.684;2023-07-13T15:30:00;4.20;;;1.30;;
22774;SDS011;11554;51.106;3.684;2023-07-13T15:35:00;3.60;;;1.40;;
22774;SDS011;11554;51.106;3.684;2023-07-13T15:40:00;3.60;;;1.40;;
22774;SDS011;11554;51.106;3.684;2023-07-13T15:45:00;5.10;;;1.30;;
22774;SDS011;11554;51.106;3.684;2023-07-13T15:50:00;5.10;;;1.30;;
22774;SDS011;11554;51.106;3.684;2023-07-13T15:55:00;3.00;;;1.20;;
22774;SDS011;11554;51.106;3.684;2023-07-13T16:00:00;3.00;;;1.20;;
22774;SDS011;11554;51.106;3.684;2023-07-13T16:05:00;3.40;;;1.20;;
22774;SDS011;11554;51.106;3.684;2023-07-13T16:10:00;3.40;;;1.20;;
22774;SDS011;11554;51.106;3.684;2023-07-13T16:15:00;4.00;;;1.20;;
22774;SDS011;11554;51.106;3.684;2023-07-13T16:20:00;4.00;;;1.20;;
22774;SDS011;11554;51.106;3.684;2023-07-13T16:25:00;4.40;;;1.50;;
22774;SDS011;11554;51.106;3.684;2023-07-13T16:30:11;4.40;;;1.50;;
22774;SDS011;11554;51.106;3.684;2023-07-13T16:35:00;4.50;;;1.50;;
22774;SDS011;11554;51.106;3.684;2023-07-13T16:40:01;4.50;;;1.50;;
22774;SDS011;11554;51.106;3.684;2023-07-13T16:45:00;3.60;;;1.30;;
22774;SDS011;11554;51.106;3.684;2023-07-13T16:50:00;3.60;;;1.30;;
22774;SDS011;11554;51.106;3.684;2023-07-13T16:55:00;3.80;;;1.70;;
22774;SDS011;11554;51.106;3.684;2023-07-13T17:00:00;3.80;;;1.70;;
22774;SDS011;11554;51.106;3.684;2023-07-13T17:05:00;3.10;;;1.20;;
22774;SDS011;11554;51.106;3.684;2023-07-13T17:10:01;3.10;;;1.20;;
22774;SDS011;11554;51.106;3.684;2023-07-13T17:15:01;3.90;;;1.10;;
22774;SDS011;11554;51.106;3.684;2023-07-13T17:20:01;3.90;;;1.10;;
22774;SDS011;11554;51.106;3.684;2023-07-13T17:25:00;3.80;;;1.20;;
22774;SDS011;11554;51.106;3.684;2023-07-13T17:30:00;3.80;;;1.20;;
22774;SDS011;11554;51.106;3.684;2023-07-13T17:35:19;3.40;;;1.00;;
22774;SDS011;11554;51.106;3.684;2023-07-13T17:40:00;3.40;;;1.00;;
22774;SDS011;11554;51.106;3.684;2023-07-13T17:45:00;3.20;;;0.90;;
22774;SDS011;11554;51.106;3.684;2023-07-13T17:50:00;3.20;;;0.90;;
22774;SDS011;11554;51.106;3.684;2023-07-13T17:55:04;5.40;;;1.00;;
22774;SDS011;11554;51.106;3.684;2023-07-13T18:00:00;5.40;;;1.00;;
22774;SDS011;11554;51.106;3.684;2023-07-13T18:05:00;3.50;;;1.20;;
22774;SDS011;11554;51.106;3.684;2023-07-13T18:10:00;3.50;;;1.20;;
22774;SDS011;11554;51.106;3.684;2023-07-13T18:15:00;2.70;;;1.30;;
22774;SDS011;11554;51.106;3.684;2023-07-13T18:20:00;2.70;;;1.30;;
22774;SDS011;11554;51.106;3.684;2023-07-13T18:25:01;6.10;;;1.20;;
22774;SDS011;11554;51.106;3.684;2023-07-13T18:30:00;6.10;;;1.20;;
22774;SDS011;11554;51.106;3.684;2023-07-13T18:35:00;3.90;;;1.30;;
22774;SDS011;11554;51.106;3.684;2023-07-13T18:40:00;3.90;;;1.30;;
22774;SDS011;11554;51.106;3.684;2023-07-13T18:45:00;4.10;;;1.00;;
22774;SDS011;11554;51.106;3.684;2023-07-13T18:50:00;4.10;;;1.00;;
22774;SDS011;11554;51.106;3.684;2023-07-13T18:55:00;3.30;;;0.90;;
22774;SDS011;11554;51.106;3.684;2023-07-13T19:00:00;3.30;;;0.90;;
22774;SDS011;11554;51.106;3.684;2023-07-13T19:05:00;5.20;;;1.30;;
22774;SDS011;11554;51.106;3.684;2023-07-13T19:10:00;5.20;;;1.30;;
22774;SDS011;11554;51.106;3.684;2023-07-13T19:15:00;3.50;;;0.90;;
22774;SDS011;11554;51.106;3.684;2023-07-13T19:20:00;3.50;;;0.90;;
22774;SDS011;11554;51.106;3.684;2023-07-13T19:25:00;5.10;;;0.90;;
22774;SDS011;11554;51.106;3.684;2023-07-13T19:30:00;5.10;;;0.90;;
22774;SDS011;11554;51.106;3.684;2023-07-13T19:35:00;4.00;;;1.00;;
22774;SDS011;11554;51.106;3.684;2023-07-13T19:40:00;4.00;;;1.00;;
22774;SDS011;11554;51.106;3.684;2023-07-13T19:45:00;4.30;;;1.10;;
22774;SDS011;11554;51.106;3.684;2023-07-13T19:50:00;4.30;;;1.10;;
22774;SDS011;11554;51.106;3.684;2023-07-13T19:55:00;5.30;;;1.00;;
22774;SDS011;11554;51.106;3.684;2023-07-13T20:00:00;5.30;;;1.00;;
22774;SDS011;11554;51.106;3.684;2023-07-13T20:05:00;2.90;;;1.00;;
22774;SDS011;11554;51.106;3.684;2023-07-13T20:10:00;2.90;;;1.00;;
22774;SDS011;11554;51.106;3.684;2023-07-13T20:15:00;2.50;;;0.90;;
22774;SDS011;11554;51.106;3.684;2023-07-13T20:20:02;2.50;;;0.90;;
22774;SDS011;11554;51.106;3.684;2023-07-13T20:25:00;4.30;;;1.30;;
22774;SDS011;11554;51.106;3.684;2023-07-13T20:30:00;4.30;;;1.30;;
22774;SDS011;11554;51.106;3.684;2023-07-13T20:35:00;5.20;;;1.60;;
22774;SDS011;11554;51.106;3.684;2023-07-13T20:40:01;5.20;;;1.60;;
22774;SDS011;11554;51.106;3.684;2023-07-13T20:45:00;3.60;;;1.30;;
22774;SDS011;11554;51.106;3.684;2023-07-13T20:50:01;3.60;;;1.30;;
22774;SDS011;11554;51.106;3.684;2023-07-13T20:55:04;3.60;;;1.20;;
22774;SDS011;11554;51.106;3.684;2023-07-13T21:00:00;3.60;;;1.20;;
22774;SDS011;11554;51.106;3.684;2023-07-13T21:05:14;4.00;;;1.20;;
22774;SDS011;11554;51.106;3.684;2023-07-13T21:10:00;4.00;;;1.20;;
22774;SDS011;11554;51.106;3.684;2023-07-13T21:15:01;5.10;;;1.50;;
22774;SDS011;11554;51.106;3.684;2023-07-13T21:20:00;5.10;;;1.50;;
22774;SDS011;11554;51.106;3.684;2023-07-13T21:25:03;5.20;;;1.30;;
22774;SDS011;11554;51.106;3.684;2023-07-13T21:30:00;5.20;;;1.30;;
22774;SDS011;11554;51.106;3.684;2023-07-13T21:35:00;4.80;;;1.30;;
22774;SDS011;11554;51.106;3.684;2023-07-13T21:40:00;4.80;;;1.30;;
22774;SDS011;11554;51.106;3.684;2023-07-13T21:45:00;3.90;;;1.80;;
22774;SDS011;11554;51.106;3.684;2023-07-13T21:50:00;3.90;;;1.80;;
22774;SDS011;11554;51.106;3.684;2023-07-13T21:55:00;5.70;;;1.70;;
22774;SDS011;11554;51.106;3.684;2023-07-13T22:00:00;5.70;;;1.70;;
22774;SDS011;11554;51.106;3.684;2023-07-13T22:05:00;5.90;;;1.90;;
22774;SDS011;11554;51.106;3.684;2023-07-13T22:10:00;5.90;;;1.90;;
22774;SDS011;11554;51.106;3.684;2023-07-13T22:15:00;6.30;;;2.10;;
22774;SDS011;11554;51.106;3.684;2023-07-13T22:20:00;6.30;;;2.10;;
22774;SDS011;11554;51.106;3.684;2023-07-13T22:25:00;5.80;;;1.90;;
22774;SDS011;11554;51.106;3.684;2023-07-13T22:30:00;5.80;;;1.90;;
22774;SDS011;11554;51.106;3.684;2023-07-13T22:35:00;5.20;;;2.00;;
22774;SDS011;11554;51.106;3.684;2023-07-13T22:40:00;5.20;;;2.00;;
22774;SDS011;11554;51.106;3.684;2023-07-13T22:45:00;5.50;;;1.90;;
22774;SDS011;11554;51.106;3.684;2023-07-13T22:50:00;5.50;;;1.90;;
22774;SDS011;11554;51.106;3.684;2023-07-13T22:55:00;7.50;;;2.10;;
22774;SDS011;11554;51.106;3.684;2023-07-13T23:00:00;7.50;;;2.10;;
22774;SDS011;11554;51.106;3.684;2023-07-13T23:05:01;5.50;;;2.10;;
22774;SDS011;11554;51.106;3.684;2023-07-13T23:10:00;5.50;;;2.10;;
22774;SDS011;11554;51.106;3.684;2023-07-13T23:15:00;5.60;;;2.20;;
22774;SDS011;11554;51.106;3.684;2023-07-13T23:20:00;5.60;;;2.20;;
22774;SDS011;11554;51.106;3.684;2023-07-13T23:25:00;7.40;;;2.40;;
22774;SDS011;11554;51.106;3.684;2023-07-13T23:30:00;7.40;;;2.40;;
22774;SDS011;11554;51.106;3.684;2023-07-13T23:35:00;5.90;;;1.90;;
22774;SDS011;11554;51.106;3.684;2023-07-13T23:40:00;5.90;;;1.90;;
22774;SDS011;11554;51.106;3.684;2023-07-13T23:45:00;5.90;;;2.20;;
22774;SDS011;11554;51.106;3.684;2023-07-13T23:50:01;5.90;;;2.20;;
22774;SDS011;11554;51.106;3.684;2023-07-13T23:55:01;5.50;;;2.20;;
